Terminal Aerodrome Forecast
Issued by NWS

Home | Current Version | Previous Version | Graphics & Text | Print | Product List | Glossary On
Versions: 1 2 3 4 5 6 7 8 9 10 11 12 13 14 15
000
FTUS43 KTOP 302300
TAFMHK
TAF
KMHK 302325Z 3100/3124 35010KT P6SM SKC
     FM310600 36012KT P6SM BKN020
     FM311300 02012KT P6SM FEW030=

USA.gov is the U.S. government's official web portal to all federal, state and local government web resources and services.